Time;durP1;ratioP1;P1;durP2;ratioP2;P2;SDS_P1;SDS_P2;PMS_P1;PMS_P2;Temp;Humidity;BMP_temperature;BMP_pressure;BME280_temperature;BME280_humidity;BME280_pressure;Samples;Min_cycle;Max_cycle;Signal;HPM_P1;HPM_P2
2021/10/30 00:01:52;;;;;;;26.77;18.17;;;5.00;99.90;;;;;;5067267;28;20533;-67
2021/10/30 00:04:18;;;;;;;22.67;16.87;;;4.90;99.90;;;;;;5066251;28;20482;-65
2021/10/30 00:06:45;;;;;;;25.80;18.90;;;4.90;99.90;;;;;;5066494;28;20842;-66
2021/10/30 00:09:13;;;;;;;24.50;17.97;;;4.90;99.90;;;;;;5067373;28;20483;-68
2021/10/30 00:11:40;;;;;;;22.47;16.40;;;4.90;99.90;;;;;;5068140;28;20952;-67
2021/10/30 00:14:07;;;;;;;22.30;15.83;;;4.90;99.90;;;;;;5059491;28;20873;-66
2021/10/30 00:16:34;;;;;;;26.50;16.60;;;4.90;99.90;;;;;;5052044;28;21008;-69
2021/10/30 00:19:01;;;;;;;20.90;17.30;;;4.90;99.90;;;;;;5048512;28;20458;-67
2021/10/30 00:21:28;;;;;;;23.83;17.40;;;5.00;99.90;;;;;;5065556;28;20984;-66
2021/10/30 00:23:55;;;;;;;24.43;18.67;;;5.00;99.90;;;;;;5068305;28;20462;-66
2021/10/30 00:26:23;;;;;;;22.07;16.63;;;5.00;99.90;;;;;;5060547;28;20489;-66
2021/10/30 00:28:50;;;;;;;22.37;16.93;;;5.00;99.90;;;;;;5068042;28;20453;-66
2021/10/30 00:31:17;;;;;;;22.37;17.23;;;4.90;99.90;;;;;;5067215;28;20679;-67
2021/10/30 00:33:44;;;;;;;21.67;16.67;;;5.00;99.90;;;;;;5067824;28;20455;-66
2021/10/30 00:36:11;;;;;;;19.07;16.90;;;4.90;99.90;;;;;;5067271;28;20995;-65
2021/10/30 00:38:38;;;;;;;22.27;17.40;;;4.90;99.90;;;;;;5067673;28;20482;-66
2021/10/30 00:41:05;;;;;;;19.57;15.60;;;4.90;99.90;;;;;;5067950;28;20473;-66
2021/10/30 00:43:34;;;;;;;22.60;16.70;;;4.80;99.90;;;;;;5057162;28;20458;-66
2021/10/30 00:46:01;;;;;;;21.13;16.00;;;4.80;99.90;;;;;;5055440;28;20483;-66
2021/10/30 00:48:28;;;;;;;20.20;15.07;;;4.80;99.90;;;;;;5047141;28;21465;-67
2021/10/30 00:50:56;;;;;;;22.17;16.13;;;4.80;99.90;;;;;;5064575;28;20455;-66
2021/10/30 00:53:31;;;;;;;19.67;16.33;;;4.80;99.90;;;;;;5067178;28;20450;-66
2021/10/30 00:56:00;;;;;;;22.43;16.13;;;4.90;99.90;;;;;;5067423;28;20528;-66
2021/10/30 00:58:29;;;;;;;21.93;17.33;;;4.90;99.90;;;;;;5066646;28;20819;-66
2021/10/30 01:00:59;;;;;;;19.73;15.20;;;4.90;99.90;;;;;;5067854;28;20446;-66
2021/10/30 01:03:26;;;;;;;20.07;15.97;;;4.80;99.90;;;;;;5067119;28;20447;-67
2021/10/30 01:05:53;;;;;;;19.27;16.40;;;4.80;99.90;;;;;;5067712;28;20591;-66
2021/10/30 01:08:22;;;;;;;22.47;16.67;;;4.70;99.90;;;;;;5066912;28;20455;-68
2021/10/30 01:10:49;;;;;;;21.53;15.17;;;4.70;99.90;;;;;;5067921;28;21125;-66
2021/10/30 01:13:17;;;;;;;17.57;14.90;;;4.70;99.90;;;;;;5060621;28;20439;-66
2021/10/30 01:15:44;;;;;;;21.93;16.40;;;4.70;99.90;;;;;;5055848;28;20483;-66
2021/10/30 01:18:12;;;;;;;19.87;15.33;;;4.70;99.90;;;;;;5047112;28;20456;-65
2021/10/30 01:20:40;;;;;;;21.70;15.33;;;4.70;99.90;;;;;;5047459;28;20494;-66
2021/10/30 01:23:07;;;;;;;19.50;16.77;;;4.70;99.90;;;;;;5059013;28;20446;-67
2021/10/30 01:25:34;;;;;;;22.70;16.50;;;4.60;99.90;;;;;;5056514;28;20494;-65
2021/10/30 01:28:01;;;;;;;22.50;17.70;;;4.70;99.90;;;;;;5059929;28;20818;-65
2021/10/30 01:30:28;;;;;;;19.73;15.93;;;4.70;99.90;;;;;;5059410;28;20458;-65
2021/10/30 01:32:57;;;;;;;21.17;16.00;;;4.70;99.90;;;;;;5061953;28;20452;-65
2021/10/30 01:35:28;;;;;;;25.60;17.50;;;4.70;99.90;;;;;;5050279;28;20472;-67
2021/10/30 01:37:57;;;;;;;23.30;17.40;;;4.80;99.90;;;;;;5050569;28;20475;-66
2021/10/30 01:40:24;;;;;;;30.73;18.33;;;4.80;99.90;;;;;;5050537;28;20448;-67
2021/10/30 01:42:55;;;;;;;24.57;17.70;;;4.80;99.90;;;;;;5056019;28;20454;-67
2021/10/30 01:45:23;;;;;;;24.17;17.63;;;4.80;99.90;;;;;;5056224;28;20463;-67
2021/10/30 01:47:49;;;;;;;19.50;16.30;;;4.80;99.90;;;;;;5052145;28;20548;-65
2021/10/30 01:50:16;;;;;;;22.77;17.50;;;4.70;99.90;;;;;;5071000;28;20450;-66
2021/10/30 01:52:45;;;;;;;20.73;16.27;;;4.70;99.90;;;;;;5071674;28;20451;-66
2021/10/30 01:55:15;;;;;;;22.63;16.60;;;4.70;99.90;;;;;;5072370;28;20459;-66
2021/10/30 01:57:42;;;;;;;19.67;15.20;;;4.60;99.90;;;;;;5071554;28;20455;-66
2021/10/30 02:00:11;;;;;;;21.67;16.60;;;4.60;99.90;;;;;;5072077;28;20447;-66
2021/10/30 02:02:38;;;;;;;20.33;16.27;;;4.60;99.90;;;;;;5071883;28;20449;-66
2021/10/30 02:05:05;;;;;;;28.13;18.73;;;4.60;99.90;;;;;;5071719;28;20481;-66
2021/10/30 02:07:32;;;;;;;23.80;17.80;;;4.60;99.90;;;;;;5071417;28;20479;-65
2021/10/30 02:09:59;;;;;;;23.10;16.40;;;4.70;99.90;;;;;;5071959;28;20553;-66
2021/10/30 02:12:28;;;;;;;25.77;17.73;;;4.60;99.90;;;;;;5071769;28;20450;-65
2021/10/30 02:14:55;;;;;;;21.77;17.43;;;4.60;99.90;;;;;;5071696;28;20570;-66
2021/10/30 02:17:22;;;;;;;25.57;18.17;;;4.60;99.90;;;;;;5071303;28;20454;-64
2021/10/30 02:19:49;;;;;;;20.63;16.00;;;4.50;99.90;;;;;;5071639;28;20447;-67
2021/10/30 02:22:16;;;;;;;22.57;16.43;;;4.50;99.90;;;;;;5071525;28;20445;-65
2021/10/30 02:24:43;;;;;;;24.03;16.90;;;4.50;99.90;;;;;;5071323;28;20458;-65
2021/10/30 02:27:10;;;;;;;26.23;18.90;;;4.50;99.90;;;;;;5071104;28;20493;-66
2021/10/30 02:29:39;;;;;;;22.70;17.93;;;4.40;99.90;;;;;;5071247;28;20459;-64
2021/10/30 02:32:06;;;;;;;26.13;18.93;;;4.40;99.90;;;;;;5071128;28;20443;-66
2021/10/30 02:34:33;;;;;;;26.27;20.00;;;4.50;99.90;;;;;;5071064;28;20450;-65
2021/10/30 02:37:00;;;;;;;29.40;20.10;;;4.40;99.90;;;;;;5071107;28;20443;-67
2021/10/30 02:39:27;;;;;;;22.57;18.80;;;4.40;99.90;;;;;;5071071;28;20534;-65
2021/10/30 02:41:54;;;;;;;25.80;18.37;;;4.50;99.90;;;;;;5071302;28;20455;-65
2021/10/30 02:44:21;;;;;;;25.90;18.70;;;4.50;99.90;;;;;;5070969;28;20465;-66
2021/10/30 02:46:49;;;;;;;26.60;18.23;;;4.40;99.90;;;;;;5070598;28;21011;-65
2021/10/30 02:49:16;;;;;;;26.77;18.17;;;4.40;99.90;;;;;;5071138;28;20443;-65
2021/10/30 02:51:42;;;;;;;30.13;18.30;;;4.40;99.90;;;;;;5071300;28;20455;-68
2021/10/30 02:54:09;;;;;;;24.53;17.93;;;4.40;99.90;;;;;;5071093;28;20447;-66
2021/10/30 02:56:36;;;;;;;25.33;18.17;;;4.40;99.90;;;;;;5070506;28;20848;-66
2021/10/30 02:59:03;;;;;;;22.87;15.73;;;4.30;99.90;;;;;;5071053;28;20917;-66
2021/10/30 03:01:30;;;;;;;21.50;16.17;;;4.20;99.90;;;;;;5070878;28;20538;-66
2021/10/30 03:03:58;;;;;;;21.63;16.40;;;4.20;99.90;;;;;;5071296;28;20453;-67
2021/10/30 03:06:26;;;;;;;21.50;17.33;;;4.20;99.90;;;;;;5070708;28;20494;-67
2021/10/30 03:08:53;;;;;;;25.00;17.57;;;4.10;99.90;;;;;;5070930;28;20477;-65
2021/10/30 03:11:20;;;;;;;22.90;17.17;;;4.10;99.90;;;;;;5070636;28;20937;-65
2021/10/30 03:13:47;;;;;;;23.57;18.13;;;4.00;99.90;;;;;;5070774;28;20521;-65
2021/10/30 03:16:14;;;;;;;26.33;18.20;;;4.00;99.90;;;;;;5070338;28;20494;-66
2021/10/30 03:18:41;;;;;;;20.30;16.80;;;4.00;99.90;;;;;;5070337;28;20941;-64
2021/10/30 03:21:09;;;;;;;22.07;16.13;;;4.00;99.90;;;;;;5070722;28;20443;-67
2021/10/30 03:23:36;;;;;;;25.30;18.20;;;4.10;99.90;;;;;;5070283;28;20486;-66
2021/10/30 03:26:03;;;;;;;23.57;17.67;;;4.00;99.90;;;;;;5070237;28;20463;-65
2021/10/30 03:28:30;;;;;;;23.10;17.93;;;4.00;99.90;;;;;;5069876;28;20850;-65
2021/10/30 03:30:57;;;;;;;24.73;17.87;;;4.00;99.90;;;;;;5070425;28;20454;-65
2021/10/30 03:33:24;;;;;;;26.20;20.77;;;4.10;99.90;;;;;;5070143;28;20455;-68
2021/10/30 03:35:51;;;;;;;31.53;25.90;;;4.20;99.90;;;;;;5070312;28;20519;-65
2021/10/30 03:38:19;;;;;;;29.77;23.43;;;4.10;99.90;;;;;;5069988;28;20443;-66
2021/10/30 03:40:46;;;;;;;23.07;18.90;;;4.10;99.90;;;;;;5070294;28;20872;-66
2021/10/30 03:43:13;;;;;;;30.60;19.90;;;4.00;99.90;;;;;;5069847;28;20466;-66
2021/10/30 03:45:39;;;;;;;23.10;17.77;;;4.00;99.90;;;;;;5070092;28;20475;-65
2021/10/30 03:48:08;;;;;;;25.30;19.70;;;3.90;99.90;;;;;;5069696;28;21008;-65
2021/10/30 03:50:35;;;;;;;26.67;18.80;;;4.00;99.90;;;;;;5070101;28;20451;-67
2021/10/30 03:53:02;;;;;;;22.37;16.67;;;4.00;99.90;;;;;;5070070;28;20443;-67
2021/10/30 03:55:31;;;;;;;21.57;18.53;;;4.00;99.90;;;;;;5069783;28;20465;-65
2021/10/30 03:57:57;;;;;;;27.23;19.57;;;4.00;99.90;;;;;;5069904;28;20458;-66
2021/10/30 04:00:24;;;;;;;23.43;16.67;;;3.90;99.90;;;;;;5069878;28;20453;-66
2021/10/30 04:02:51;;;;;;;27.23;19.13;;;3.90;99.90;;;;;;5069947;28;20439;-66
2021/10/30 04:05:18;;;;;;;23.70;17.83;;;3.80;99.90;;;;;;5069742;28;20466;-66
2021/10/30 04:07:45;;;;;;;23.57;17.67;;;3.80;99.90;;;;;;5069567;28;20565;-66
2021/10/30 04:10:12;;;;;;;23.23;17.93;;;3.80;99.90;;;;;;5069872;28;20473;-64
2021/10/30 04:12:40;;;;;;;22.20;16.57;;;3.80;99.90;;;;;;5070014;28;20439;-67
2021/10/30 04:15:08;;;;;;;24.97;18.20;;;3.80;99.90;;;;;;5069591;28;20984;-65
2021/10/30 04:17:35;;;;;;;19.50;15.53;;;3.80;99.90;;;;;;5069402;28;20446;-66
2021/10/30 04:20:02;;;;;;;22.20;16.00;;;3.80;99.90;;;;;;5069715;28;20483;-67
2021/10/30 04:22:29;;;;;;;20.23;15.20;;;3.80;99.90;;;;;;5069485;28;20461;-67
2021/10/30 04:24:57;;;;;;;21.90;16.20;;;3.80;99.90;;;;;;5069950;28;20837;-65
2021/10/30 04:27:24;;;;;;;20.83;15.90;;;3.60;99.90;;;;;;5069413;28;20486;-67
2021/10/30 04:29:52;;;;;;;20.97;15.80;;;3.60;99.90;;;;;;5069842;28;20459;-66
2021/10/30 04:32:19;;;;;;;21.00;15.90;;;3.60;99.90;;;;;;5069793;28;20451;-66
2021/10/30 04:34:47;;;;;;;20.63;15.50;;;3.70;99.90;;;;;;5069489;28;21108;-66
2021/10/30 04:37:16;;;;;;;20.53;15.20;;;3.70;99.90;;;;;;5069415;28;20459;-67
2021/10/30 04:39:44;;;;;;;20.90;14.50;;;3.60;99.90;;;;;;5069397;28;21179;-65
2021/10/30 04:42:11;;;;;;;18.90;15.67;;;3.60;99.90;;;;;;5069402;28;20474;-65
2021/10/30 04:44:38;;;;;;;21.00;16.00;;;3.60;99.90;;;;;;5069444;28;20439;-65
2021/10/30 04:47:07;;;;;;;19.97;16.20;;;3.50;99.90;;;;;;5069019;28;20482;-65
2021/10/30 04:49:35;;;;;;;20.93;15.60;;;3.50;99.90;;;;;;5069360;28;20449;-64
2021/10/30 04:52:03;;;;;;;20.60;15.93;;;3.50;99.90;;;;;;5069198;28;20983;-64
2021/10/30 04:54:30;;;;;;;23.60;15.87;;;3.50;99.90;;;;;;5069564;28;20451;-66
2021/10/30 04:56:56;;;;;;;23.57;16.50;;;3.50;99.90;;;;;;5071447;28;20447;-64
2021/10/30 04:59:23;;;;;;;19.70;16.27;;;3.50;99.90;;;;;;5072970;28;20550;-67
2021/10/30 05:01:50;;;;;;;20.83;16.00;;;3.50;99.90;;;;;;5073023;28;20465;-66
2021/10/30 05:04:18;;;;;;;21.73;16.00;;;3.50;99.90;;;;;;5072852;28;20453;-65
2021/10/30 05:06:45;;;;;;;21.60;16.77;;;3.50;99.90;;;;;;5072659;28;20574;-65
2021/10/30 05:09:12;;;;;;;19.10;15.93;;;3.40;99.90;;;;;;5072686;28;21131;-65
2021/10/30 05:11:39;;;;;;;19.17;15.73;;;3.40;99.90;;;;;;5072791;28;20458;-65
2021/10/30 05:14:06;;;;;;;22.83;15.80;;;3.40;99.90;;;;;;5072547;28;20469;-65
2021/10/30 05:16:32;;;;;;;22.20;16.97;;;3.40;99.90;;;;;;5072136;28;20463;-66
2021/10/30 05:18:59;;;;;;;24.03;17.50;;;3.40;99.90;;;;;;5072424;28;20458;-65
2021/10/30 05:21:27;;;;;;;24.53;18.03;;;3.40;99.90;;;;;;5072741;28;20449;-65
2021/10/30 05:23:56;;;;;;;22.47;17.73;;;3.40;99.90;;;;;;5072536;28;20447;-67
2021/10/30 05:26:23;;;;;;;23.20;17.13;;;3.50;99.90;;;;;;5072108;28;20903;-65
2021/10/30 05:28:50;;;;;;;23.87;17.30;;;3.40;99.90;;;;;;5072488;28;20451;-65
2021/10/30 05:31:17;;;;;;;29.20;21.07;;;3.50;99.90;;;;;;5072176;28;20439;-67
2021/10/30 05:33:43;;;;;;;26.63;15.50;;;3.40;99.90;;;;;;5072571;28;20523;-65
2021/10/30 05:36:12;;;;;;;23.00;15.60;;;3.40;99.90;;;;;;5071969;28;20467;-65
2021/10/30 05:38:44;;;;;;;18.10;14.03;;;3.40;99.90;;;;;;5072341;28;20440;-64
2021/10/30 05:41:12;;;;;;;20.97;17.00;;;3.30;99.90;;;;;;5072007;28;20496;-66
2021/10/30 05:43:40;;;;;;;23.33;17.47;;;3.30;99.90;;;;;;5072431;28;20648;-65
2021/10/30 05:46:07;;;;;;;26.73;18.30;;;3.40;99.90;;;;;;5072399;28;20478;-65
2021/10/30 05:48:35;;;;;;;24.87;17.13;;;3.30;99.90;;;;;;5072127;28;20483;-64
2021/10/30 05:51:02;;;;;;;28.50;18.53;;;3.30;99.90;;;;;;5072179;28;20803;-66
2021/10/30 05:53:29;;;;;;;24.57;17.03;;;3.30;99.90;;;;;;5072166;28;20525;-65
2021/10/30 05:55:57;;;;;;;18.87;16.43;;;3.30;99.90;;;;;;5071677;28;20471;-66
2021/10/30 05:58:24;;;;;;;19.40;16.40;;;3.40;99.90;;;;;;5071512;28;21230;-64
2021/10/30 06:00:51;;;;;;;19.17;14.87;;;3.30;99.90;;;;;;5071931;28;20449;-65
2021/10/30 06:03:18;;;;;;;23.67;18.27;;;3.20;99.90;;;;;;5071757;28;20439;-67
2021/10/30 06:05:44;;;;;;;24.17;17.40;;;3.30;99.90;;;;;;5071713;28;20470;-66
2021/10/30 06:08:11;;;;;;;20.50;15.47;;;3.40;99.90;;;;;;5070761;28;20855;-64
2021/10/30 06:10:38;;;;;;;22.10;16.10;;;3.40;99.90;;;;;;5071517;28;20945;-66
2021/10/30 06:13:06;;;;;;;24.73;17.13;;;3.40;99.90;;;;;;5071390;28;20825;-64
2021/10/30 06:15:33;;;;;;;20.77;16.23;;;3.40;99.90;;;;;;5071683;28;20463;-65
2021/10/30 06:18:00;;;;;;;22.83;16.00;;;3.40;99.90;;;;;;5071163;28;20831;-66
2021/10/30 06:20:27;;;;;;;20.60;16.00;;;3.50;99.90;;;;;;5071480;28;20447;-66
2021/10/30 06:22:54;;;;;;;22.87;15.73;;;3.50;99.90;;;;;;5071315;28;20439;-65
2021/10/30 06:25:20;;;;;;;20.37;15.77;;;3.50;99.90;;;;;;5071359;28;20467;-66
2021/10/30 06:27:47;;;;;;;22.27;15.20;;;3.50;99.90;;;;;;5072216;28;20475;-66
2021/10/30 06:30:15;;;;;;;21.50;16.30;;;3.60;99.90;;;;;;5071555;28;20453;-65
2021/10/30 06:32:42;;;;;;;19.83;16.17;;;3.60;99.90;;;;;;5071347;28;20445;-67
2021/10/30 06:35:09;;;;;;;19.90;15.23;;;3.70;99.90;;;;;;5071075;28;20467;-65
2021/10/30 06:37:38;;;;;;;24.30;16.57;;;3.70;99.90;;;;;;5070882;28;20439;-66
2021/10/30 06:40:07;;;;;;;23.27;16.40;;;3.70;99.90;;;;;;5070896;28;20494;-65
2021/10/30 06:42:34;;;;;;;23.67;17.20;;;3.70;99.90;;;;;;5071211;28;20443;-64
2021/10/30 06:45:01;;;;;;;18.60;15.90;;;3.60;99.90;;;;;;5070801;28;20471;-65
2021/10/30 06:47:30;;;;;;;20.70;16.87;;;3.60;99.90;;;;;;5060215;28;20566;-65
2021/10/30 06:49:59;;;;;;;20.63;14.83;;;3.60;99.90;;;;;;5070339;28;20453;-64
2021/10/30 06:52:26;;;;;;;23.63;17.30;;;3.70;99.90;;;;;;5070314;28;20530;-64
2021/10/30 06:54:53;;;;;;;18.00;14.83;;;3.70;99.90;;;;;;5070601;28;20864;-65
2021/10/30 06:57:20;;;;;;;20.93;14.83;;;3.80;99.90;;;;;;5070187;28;20465;-66
2021/10/30 06:59:47;;;;;;;19.03;15.30;;;3.80;99.90;;;;;;5070400;28;21076;-65
2021/10/30 07:02:14;;;;;;;18.03;14.83;;;3.80;99.90;;;;;;5070490;28;20453;-64
2021/10/30 07:04:42;;;;;;;21.23;15.70;;;3.90;99.90;;;;;;5070386;28;20455;-67
2021/10/30 07:07:08;;;;;;;20.83;15.00;;;4.00;99.90;;;;;;5070161;28;20439;-63
2021/10/30 07:09:35;;;;;;;19.40;14.27;;;4.10;99.90;;;;;;5070745;28;20443;-63
2021/10/30 07:12:02;;;;;;;17.00;14.70;;;4.20;99.90;;;;;;5070453;28;20549;-63
2021/10/30 07:14:29;;;;;;;18.60;15.00;;;4.40;99.90;;;;;;5070396;28;21226;-65
2021/10/30 07:16:57;;;;;;;22.17;15.13;;;4.50;99.90;;;;;;5069894;28;20443;-64
2021/10/30 07:19:24;;;;;;;20.00;15.00;;;4.70;99.90;;;;;;5069316;28;20461;-67
2021/10/30 07:21:52;;;;;;;19.20;15.60;;;5.00;99.90;;;;;;5069665;28;20932;-65
2021/10/30 07:24:19;;;;;;;20.20;15.43;;;5.20;99.90;;;;;;5070248;28;20451;-64
2021/10/30 07:26:46;;;;;;;18.20;14.30;;;5.40;99.90;;;;;;5069646;28;20486;-64
2021/10/30 07:29:13;;;;;;;17.57;15.40;;;5.50;99.90;;;;;;5070167;28;20937;-64
2021/10/30 07:31:41;;;;;;;21.50;14.50;;;5.70;99.90;;;;;;5069902;28;20969;-66
2021/10/30 07:34:08;;;;;;;19.00;15.40;;;5.80;99.90;;;;;;5070119;28;20537;-66
2021/10/30 07:36:35;;;;;;;20.50;16.63;;;6.10;99.90;;;;;;5068031;28;20493;-66
2021/10/30 07:39:03;;;;;;;19.27;14.80;;;6.20;99.90;;;;;;5069886;28;20929;-66
2021/10/30 07:41:30;;;;;;;21.23;13.53;;;6.40;99.90;;;;;;5069751;28;20544;-66
2021/10/30 07:43:57;;;;;;;16.40;13.90;;;6.50;99.90;;;;;;5068285;28;20443;-65
2021/10/30 07:46:24;;;;;;;15.93;13.40;;;6.60;99.90;;;;;;5068999;28;20536;-65
2021/10/30 07:48:53;;;;;;;17.97;14.40;;;6.70;99.90;;;;;;5069616;28;20828;-64
2021/10/30 07:51:20;;;;;;;17.67;14.60;;;6.90;99.90;;;;;;5066059;28;21032;-64
2021/10/30 07:53:47;;;;;;;16.67;13.80;;;7.00;99.90;;;;;;5053975;28;20448;-65
2021/10/30 07:56:16;;;;;;;18.07;13.73;;;7.00;99.90;;;;;;5063009;28;20471;-64
2021/10/30 07:58:43;;;;;;;14.93;13.10;;;7.10;99.90;;;;;;5054700;28;20519;-65
2021/10/30 08:01:10;;;;;;;13.63;11.70;;;7.10;99.90;;;;;;5066692;28;20470;-64
2021/10/30 08:03:37;;;;;;;17.53;14.00;;;7.10;99.90;;;;;;5068253;28;20941;-65
2021/10/30 08:06:04;;;;;;;14.67;13.13;;;7.20;99.90;;;;;;5069278;28;20478;-65
2021/10/30 08:08:32;;;;;;;17.70;12.67;;;7.30;99.90;;;;;;5069152;28;20483;-66
2021/10/30 08:10:59;;;;;;;14.43;12.20;;;7.20;99.90;;;;;;5069272;28;21012;-65
2021/10/30 08:13:27;;;;;;;16.30;13.07;;;7.20;99.90;;;;;;5059444;28;20454;-64
2021/10/30 08:15:54;;;;;;;16.63;13.83;;;7.30;99.90;;;;;;5063698;28;20474;-65
2021/10/30 08:18:21;;;;;;;15.40;12.80;;;7.40;99.90;;;;;;5064162;28;20446;-65
2021/10/30 08:20:48;;;;;;;13.07;11.67;;;7.60;99.90;;;;;;5063954;28;20451;-65
2021/10/30 08:23:15;;;;;;;14.00;12.27;;;7.80;99.90;;;;;;5050214;28;20574;-65
2021/10/30 08:25:42;;;;;;;15.60;13.50;;;8.00;99.90;;;;;;5055178;28;21012;-63
2021/10/30 08:28:08;;;;;;;16.50;13.20;;;8.20;99.90;;;;;;5060511;28;20490;-66
2021/10/30 08:30:37;;;;;;;12.43;11.10;;;8.30;99.90;;;;;;5067147;28;20451;-66
2021/10/30 08:33:03;;;;;;;15.47;12.90;;;8.40;99.90;;;;;;5057444;28;20860;-71
2021/10/30 08:35:30;;;;;;;13.17;11.87;;;8.50;99.90;;;;;;5056180;28;20460;-65
2021/10/30 08:37:57;;;;;;;14.57;12.93;;;8.60;99.90;;;;;;5065732;28;20453;-65
2021/10/30 08:40:24;;;;;;;15.87;12.50;;;8.80;99.90;;;;;;5059143;28;20447;-66
2021/10/30 08:42:51;;;;;;;13.87;12.03;;;9.00;99.90;;;;;;5062454;28;20490;-63
2021/10/30 08:45:19;;;;;;;13.83;11.20;;;9.00;99.90;;;;;;5064354;28;20937;-66
2021/10/30 08:47:49;;;;;;;15.03;12.27;;;8.90;99.90;;;;;;5059188;28;20554;-66
2021/10/30 08:50:16;;;;;;;16.27;13.27;;;9.00;99.90;;;;;;5060214;28;20573;-66
2021/10/30 08:52:43;;;;;;;15.93;13.10;;;9.00;99.90;;;;;;5060162;28;20443;-66
2021/10/30 08:55:10;;;;;;;15.20;12.70;;;9.10;99.90;;;;;;5057349;28;20470;-66
2021/10/30 08:57:38;;;;;;;14.87;13.27;;;9.30;99.90;;;;;;5066194;28;20450;-66
2021/10/30 09:00:19;;;;;;;15.83;12.47;;;9.40;99.90;;;;;;5059030;28;20452;-66
2021/10/30 09:02:53;;;;;;;13.00;11.60;;;9.60;99.90;;;;;;5061170;28;20455;-66
2021/10/30 09:05:23;;;;;;;13.70;11.80;;;9.70;99.90;;;;;;5064596;28;20480;-68
2021/10/30 09:07:53;;;;;;;13.77;12.30;;;9.80;99.90;;;;;;5059407;28;20466;-66
2021/10/30 09:10:22;;;;;;;14.13;12.43;;;10.00;99.90;;;;;;5066201;28;20459;-66
2021/10/30 09:12:50;;;;;;;13.63;11.70;;;10.10;99.90;;;;;;5059812;28;20448;-66
2021/10/30 09:15:20;;;;;;;14.70;12.30;;;10.30;99.90;;;;;;5057331;28;20491;-67
2021/10/30 09:17:49;;;;;;;14.13;12.10;;;10.40;99.90;;;;;;5055483;28;20876;-66
2021/10/30 09:20:16;;;;;;;14.17;10.93;;;10.40;99.90;;;;;;5062411;28;20770;-67
2021/10/30 09:22:57;;;;;;;14.00;12.57;;;10.30;99.90;;;;;;5065733;28;20465;-67
2021/10/30 09:25:24;;;;;;;14.67;12.07;;;10.30;99.90;;;;;;5072355;28;20466;-67
2021/10/30 09:27:54;;;;;;;12.67;11.27;;;10.10;99.90;;;;;;5071858;28;20938;-66
2021/10/30 09:30:24;;;;;;;14.27;12.03;;;10.10;99.90;;;;;;5063044;28;20546;-67
2021/10/30 09:32:57;;;;;;;12.80;11.37;;;10.10;99.90;;;;;;5057912;28;20455;-66
2021/10/30 09:35:27;;;;;;;13.47;12.03;;;10.20;99.90;;;;;;5058068;28;20843;-66
2021/10/30 09:37:54;;;;;;;13.90;11.53;;;10.20;99.90;;;;;;5071664;28;20438;-66
2021/10/30 09:40:24;;;;;;;16.40;12.23;;;10.30;99.90;;;;;;5072464;28;20527;-67
2021/10/30 09:42:53;;;;;;;15.80;14.20;;;10.30;99.90;;;;;;5071352;28;20866;-67
2021/10/30 09:45:20;;;;;;;15.10;13.43;;;10.30;99.90;;;;;;5072099;28;20477;-67
2021/10/30 09:48:01;;;;;;;13.80;12.17;;;10.40;99.90;;;;;;5071939;28;20518;-66
2021/10/30 09:50:30;;;;;;;14.17;11.90;;;10.30;99.90;;;;;;5062596;28;20866;-67
2021/10/30 09:52:57;;;;;;;14.73;12.20;;;10.30;99.90;;;;;;5059092;28;20521;-67
2021/10/30 09:55:28;;;;;;;12.83;11.40;;;10.30;99.90;;;;;;5061739;28;20916;-67
2021/10/30 09:58:05;;;;;;;16.30;12.73;;;10.40;99.90;;;;;;5061869;28;20968;-66
2021/10/30 10:00:33;;;;;;;20.77;13.33;;;10.30;99.90;;;;;;5066538;28;20959;-65
2021/10/30 10:03:03;;;;;;;12.40;11.10;;;10.20;99.90;;;;;;5067939;28;20462;-68
2021/10/30 10:05:36;;;;;;;14.97;11.83;;;10.40;99.90;;;;;;5059877;28;20473;-69
2021/10/30 10:08:05;;;;;;;12.17;10.87;;;10.40;99.90;;;;;;5068078;28;20895;-66
2021/10/30 10:10:32;;;;;;;14.30;11.60;;;10.40;99.90;;;;;;5071250;28;20493;-69
2021/10/30 10:12:59;;;;;;;14.00;10.33;;;10.30;99.90;;;;;;5061929;28;20448;-66
2021/10/30 10:15:26;;;;;;;13.23;11.77;;;10.30;99.90;;;;;;5058464;28;20548;-68
2021/10/30 10:17:54;;;;;;;14.20;10.23;;;10.30;99.90;;;;;;5067854;28;20436;-68
2021/10/30 10:20:23;;;;;;;12.23;10.93;;;10.40;99.90;;;;;;5067781;28;20450;-66
2021/10/30 10:22:50;;;;;;;11.63;10.23;;;10.50;99.90;;;;;;5057612;28;20536;-66
2021/10/30 10:25:28;;;;;;;15.10;11.87;;;10.60;99.90;;;;;;5062424;28;20465;-66
2021/10/30 10:27:56;;;;;;;12.13;10.93;;;10.60;99.90;;;;;;5067776;28;20551;-66
2021/10/30 10:30:23;;;;;;;13.93;12.60;;;10.50;99.90;;;;;;5059465;28;20503;-67
2021/10/30 10:32:49;;;;;;;17.57;13.83;;;10.50;99.90;;;;;;5066206;28;20450;-66
2021/10/30 10:35:18;;;;;;;16.70;13.53;;;10.50;99.90;;;;;;5058514;28;20475;-66
2021/10/30 10:37:50;;;;;;;15.20;13.67;;;10.60;99.90;;;;;;5055142;28;20554;-66
2021/10/30 10:40:32;;;;;;;15.73;12.77;;;10.50;99.90;;;;;;5056063;28;20440;-66
2021/10/30 10:43:00;;;;;;;15.17;13.20;;;10.60;99.90;;;;;;5061771;28;20453;-66
2021/10/30 10:45:49;;;;;;;14.20;12.70;;;10.50;99.90;;;;;;5062694;28;20471;-66
2021/10/30 10:48:22;;;;;;;15.97;13.87;;;10.50;99.90;;;;;;5062880;28;20448;-67
2021/10/30 10:50:51;;;;;;;14.13;11.97;;;10.60;99.90;;;;;;5070877;28;20446;-68
2021/10/30 10:53:23;;;;;;;14.90;12.07;;;10.70;99.90;;;;;;5066576;28;20495;-66
2021/10/30 10:56:19;;;;;;;15.47;13.10;;;10.80;99.90;;;;;;5061005;28;20475;-66
2021/10/30 10:59:17;;;;;;;13.77;12.40;;;10.80;99.90;;;;;;5060974;28;20522;-66
2021/10/30 11:02:19;;;;;;;13.43;12.00;;;10.90;99.90;;;;;;5059603;28;20443;-66
2021/10/30 11:05:23;;;;;;;15.50;12.77;;;10.90;99.90;;;;;;5056184;28;20451;-65
2021/10/30 11:08:34;;;;;;;15.57;12.10;;;11.00;99.90;;;;;;5053706;28;20521;-66
2021/10/30 11:11:13;;;;;;;14.63;12.40;;;11.10;99.90;;;;;;5068731;28;20924;-65
2021/10/30 11:13:58;;;;;;;16.77;13.10;;;11.00;99.90;;;;;;5066095;28;20446;-67
2021/10/30 11:16:29;;;;;;;14.43;12.17;;;11.00;99.90;;;;;;5067954;28;20968;-69
2021/10/30 11:19:02;;;;;;;13.47;12.17;;;10.90;99.90;;;;;;5059796;28;20452;-69
2021/10/30 11:21:37;;;;;;;17.83;13.90;;;10.90;99.90;;;;;;5070341;28;20428;-70
2021/10/30 11:24:17;;;;;;;16.67;12.63;;;10.80;99.90;;;;;;5070647;28;20473;-70
2021/10/30 11:26:45;;;;;;;15.90;13.70;;;10.70;99.90;;;;;;5062001;28;20502;-74
2021/10/30 11:29:13;;;;;;;15.93;11.80;;;10.50;99.90;;;;;;5062241;28;20506;-72
2021/10/30 11:31:41;;;;;;;14.20;12.50;;;10.50;99.90;;;;;;5065734;28;20447;-71
2021/10/30 11:34:10;;;;;;;13.83;12.03;;;10.60;99.90;;;;;;5066138;28;20450;-72
2021/10/30 11:36:38;;;;;;;14.53;12.77;;;10.60;99.90;;;;;;5065182;28;20742;-71
2021/10/30 11:39:08;;;;;;;13.47;12.07;;;10.70;99.90;;;;;;5069959;28;20447;-72
2021/10/30 11:41:38;;;;;;;14.73;12.97;;;10.70;99.90;;;;;;5070274;28;20449;-72
2021/10/30 11:44:08;;;;;;;13.67;12.13;;;10.70;99.90;;;;;;5070151;28;20453;-73
2021/10/30 11:46:39;;;;;;;15.07;12.77;;;10.60;99.90;;;;;;5070236;28;20469;-73
2021/10/30 11:49:06;;;;;;;15.57;13.90;;;10.60;99.90;;;;;;5069647;28;20478;-73
2021/10/30 11:51:41;;;;;;;15.73;13.70;;;10.60;99.90;;;;;;5070332;28;20529;-72
2021/10/30 11:54:10;;;;;;;16.43;14.40;;;10.60;99.90;;;;;;5061486;28;20482;-72
2021/10/30 11:56:39;;;;;;;14.70;13.27;;;10.60;99.90;;;;;;5067278;28;20471;-73
2021/10/30 11:59:08;;;;;;;16.37;13.40;;;10.30;99.90;;;;;;5070125;28;20439;-74
2021/10/30 12:01:37;;;;;;;18.23;13.90;;;10.30;99.90;;;;;;5069919;28;20814;-73
2021/10/30 12:04:12;;;;;;;16.33;14.63;;;10.30;99.90;;;;;;5066173;28;20973;-73
2021/10/30 12:06:41;;;;;;;16.40;14.70;;;10.30;99.90;;;;;;5064470;28;20478;-71
2021/10/30 12:09:23;;;;;;;16.60;14.37;;;10.20;99.90;;;;;;5069455;28;20485;-72
2021/10/30 12:11:53;;;;;;;20.17;17.70;;;10.10;99.90;;;;;;5069623;28;20447;-69
2021/10/30 12:14:24;;;;;;;21.57;18.20;;;9.90;99.90;;;;;;5069834;28;20470;-69
2021/10/30 12:16:52;;;;;;;21.23;18.00;;;9.70;99.90;;;;;;5069017;28;20459;-69
2021/10/30 12:19:21;;;;;;;20.43;18.40;;;9.60;99.90;;;;;;5068116;28;20439;-70
2021/10/30 12:21:48;;;;;;;19.93;17.63;;;9.60;99.90;;;;;;5070154;28;20447;-70
2021/10/30 12:24:27;;;;;;;21.60;18.00;;;9.60;99.90;;;;;;5069532;28;20455;-71
2021/10/30 12:26:57;;;;;;;23.23;18.80;;;9.70;99.90;;;;;;5069564;28;20458;-70
2021/10/30 12:29:27;;;;;;;22.50;17.97;;;9.70;99.90;;;;;;5069531;28;20478;-71
2021/10/30 12:32:05;;;;;;;25.90;21.30;;;9.80;99.90;;;;;;5069031;28;20448;-74
2021/10/30 12:34:33;;;;;;;20.60;18.40;;;9.90;99.90;;;;;;5062924;28;20453;-72
2021/10/30 12:37:06;;;;;;;21.93;19.63;;;10.00;99.90;;;;;;5063515;28;20546;-71
2021/10/30 12:39:33;;;;;;;24.37;19.80;;;9.90;99.90;;;;;;5066665;28;20443;-70
2021/10/30 12:42:04;;;;;;;24.47;20.10;;;9.90;99.90;;;;;;5062630;28;20456;-68
2021/10/30 12:44:33;;;;;;;22.87;19.80;;;9.90;99.90;;;;;;5066603;28;20444;-70